sensor_id;sensor_type;location;lat;lon;timestamp;P1;durP1;ratioP1;P2;durP2;ratioP2
25207;SDS011;13153;52.316;21.166;2023-08-17T00:00:14;11.75;;;8.43;;
25207;SDS011;13153;52.316;21.166;2023-08-17T00:02:43;14.38;;;8.90;;
25207;SDS011;13153;52.316;21.166;2023-08-17T00:05:09;12.50;;;8.18;;
25207;SDS011;13153;52.316;21.166;2023-08-17T00:07:35;14.45;;;8.48;;
25207;SDS011;13153;52.316;21.166;2023-08-17T00:10:02;10.70;;;8.07;;
25207;SDS011;13153;52.316;21.166;2023-08-17T00:12:28;11.75;;;8.48;;
25207;SDS011;13153;52.316;21.166;2023-08-17T00:14:54;11.57;;;8.70;;
25207;SDS011;13153;52.316;21.166;2023-08-17T00:17:20;10.40;;;8.20;;
25207;SDS011;13153;52.316;21.166;2023-08-17T00:19:47;11.68;;;8.13;;
25207;SDS011;13153;52.316;21.166;2023-08-17T00:22:13;15.45;;;8.80;;
25207;SDS011;13153;52.316;21.166;2023-08-17T00:24:38;11.52;;;8.63;;
25207;SDS011;13153;52.316;21.166;2023-08-17T00:27:06;12.07;;;8.70;;
25207;SDS011;13153;52.316;21.166;2023-08-17T00:29:32;13.35;;;8.63;;
25207;SDS011;13153;52.316;21.166;2023-08-17T00:32:00;12.23;;;8.00;;
25207;SDS011;13153;52.316;21.166;2023-08-17T00:34:26;11.68;;;9.15;;
25207;SDS011;13153;52.316;21.166;2023-08-17T00:36:52;9.10;;;8.20;;
25207;SDS011;13153;52.316;21.166;2023-08-17T00:39:18;13.65;;;9.23;;
25207;SDS011;13153;52.316;21.166;2023-08-17T00:41:45;10.77;;;9.05;;
25207;SDS011;13153;52.316;21.166;2023-08-17T00:44:11;10.50;;;8.38;;
25207;SDS011;13153;52.316;21.166;2023-08-17T00:46:37;11.00;;;8.82;;
25207;SDS011;13153;52.316;21.166;2023-08-17T00:49:04;11.95;;;8.23;;
25207;SDS011;13153;52.316;21.166;2023-08-17T00:51:31;10.10;;;8.77;;
25207;SDS011;13153;52.316;21.166;2023-08-17T00:53:59;13.30;;;8.75;;
25207;SDS011;13153;52.316;21.166;2023-08-17T00:56:26;11.25;;;8.32;;
25207;SDS011;13153;52.316;21.166;2023-08-17T00:58:53;13.07;;;8.88;;
25207;SDS011;13153;52.316;21.166;2023-08-17T01:01:19;17.85;;;9.38;;
25207;SDS011;13153;52.316;21.166;2023-08-17T01:03:46;13.00;;;9.30;;
25207;SDS011;13153;52.316;21.166;2023-08-17T01:06:12;12.40;;;8.65;;
25207;SDS011;13153;52.316;21.166;2023-08-17T01:08:37;10.85;;;8.77;;
25207;SDS011;13153;52.316;21.166;2023-08-17T01:14:03;10.77;;;8.40;;
25207;SDS011;13153;52.316;21.166;2023-08-17T01:17:15;11.43;;;9.02;;
25207;SDS011;13153;52.316;21.166;2023-08-17T01:20:03;14.15;;;8.85;;
25207;SDS011;13153;52.316;21.166;2023-08-17T01:22:34;12.15;;;9.27;;
25207;SDS011;13153;52.316;21.166;2023-08-17T01:25:03;11.13;;;8.88;;
25207;SDS011;13153;52.316;21.166;2023-08-17T01:27:33;12.98;;;8.82;;
25207;SDS011;13153;52.316;21.166;2023-08-17T01:30:05;10.98;;;8.57;;
25207;SDS011;13153;52.316;21.166;2023-08-17T01:32:39;11.10;;;9.27;;
25207;SDS011;13153;52.316;21.166;2023-08-17T01:35:37;10.65;;;9.00;;
25207;SDS011;13153;52.316;21.166;2023-08-17T01:40:44;12.32;;;9.27;;
25207;SDS011;13153;52.316;21.166;2023-08-17T01:43:12;13.77;;;9.00;;
25207;SDS011;13153;52.316;21.166;2023-08-17T01:45:41;13.43;;;9.10;;
25207;SDS011;13153;52.316;21.166;2023-08-17T01:48:07;12.30;;;8.95;;
25207;SDS011;13153;52.316;21.166;2023-08-17T01:50:33;10.13;;;9.13;;
25207;SDS011;13153;52.316;21.166;2023-08-17T01:52:59;11.65;;;8.80;;
25207;SDS011;13153;52.316;21.166;2023-08-17T01:55:25;16.23;;;9.02;;
25207;SDS011;13153;52.316;21.166;2023-08-17T01:57:52;13.60;;;9.45;;
25207;SDS011;13153;52.316;21.166;2023-08-17T02:00:18;13.90;;;9.40;;
25207;SDS011;13153;52.316;21.166;2023-08-17T02:02:44;13.68;;;9.55;;
25207;SDS011;13153;52.316;21.166;2023-08-17T02:05:10;15.07;;;9.63;;
25207;SDS011;13153;52.316;21.166;2023-08-17T02:07:36;16.25;;;9.20;;
25207;SDS011;13153;52.316;21.166;2023-08-17T02:10:01;11.55;;;9.38;;
25207;SDS011;13153;52.316;21.166;2023-08-17T02:12:28;14.63;;;9.48;;
25207;SDS011;13153;52.316;21.166;2023-08-17T02:14:53;15.02;;;9.52;;
25207;SDS011;13153;52.316;21.166;2023-08-17T02:17:19;16.70;;;9.45;;
25207;SDS011;13153;52.316;21.166;2023-08-17T02:19:46;13.10;;;9.95;;
25207;SDS011;13153;52.316;21.166;2023-08-17T02:22:12;11.57;;;9.27;;
25207;SDS011;13153;52.316;21.166;2023-08-17T02:24:39;13.30;;;10.10;;
25207;SDS011;13153;52.316;21.166;2023-08-17T02:27:05;11.90;;;9.57;;
25207;SDS011;13153;52.316;21.166;2023-08-17T02:29:32;12.95;;;10.25;;
25207;SDS011;13153;52.316;21.166;2023-08-17T02:31:58;12.65;;;9.25;;
25207;SDS011;13153;52.316;21.166;2023-08-17T02:34:24;12.23;;;9.35;;
25207;SDS011;13153;52.316;21.166;2023-08-17T02:36:50;12.60;;;9.98;;
25207;SDS011;13153;52.316;21.166;2023-08-17T02:39:16;13.02;;;10.38;;
25207;SDS011;13153;52.316;21.166;2023-08-17T02:41:41;12.57;;;9.65;;
25207;SDS011;13153;52.316;21.166;2023-08-17T02:44:09;11.10;;;9.50;;
25207;SDS011;13153;52.316;21.166;2023-08-17T02:46:35;12.98;;;9.88;;
25207;SDS011;13153;52.316;21.166;2023-08-17T02:49:01;12.38;;;9.52;;
25207;SDS011;13153;52.316;21.166;2023-08-17T02:51:27;11.02;;;9.75;;
25207;SDS011;13153;52.316;21.166;2023-08-17T02:53:53;16.63;;;9.98;;
25207;SDS011;13153;52.316;21.166;2023-08-17T02:56:19;10.57;;;9.48;;
25207;SDS011;13153;52.316;21.166;2023-08-17T02:58:45;14.20;;;10.05;;
25207;SDS011;13153;52.316;21.166;2023-08-17T03:01:10;14.23;;;10.73;;
25207;SDS011;13153;52.316;21.166;2023-08-17T03:03:36;15.82;;;9.88;;
25207;SDS011;13153;52.316;21.166;2023-08-17T03:06:02;14.93;;;10.60;;
25207;SDS011;13153;52.316;21.166;2023-08-17T03:08:30;13.95;;;10.35;;
25207;SDS011;13153;52.316;21.166;2023-08-17T03:10:55;14.10;;;10.38;;
25207;SDS011;13153;52.316;21.166;2023-08-17T03:13:21;11.68;;;9.18;;
25207;SDS011;13153;52.316;21.166;2023-08-17T03:15:47;12.73;;;9.82;;
25207;SDS011;13153;52.316;21.166;2023-08-17T03:18:13;13.70;;;10.07;;
25207;SDS011;13153;52.316;21.166;2023-08-17T03:20:39;19.88;;;10.52;;
25207;SDS011;13153;52.316;21.166;2023-08-17T03:23:04;17.77;;;10.27;;
25207;SDS011;13153;52.316;21.166;2023-08-17T03:25:32;16.02;;;10.55;;
25207;SDS011;13153;52.316;21.166;2023-08-17T03:27:59;15.02;;;10.35;;
25207;SDS011;13153;52.316;21.166;2023-08-17T03:30:25;13.85;;;9.90;;
25207;SDS011;13153;52.316;21.166;2023-08-17T03:32:51;15.07;;;10.68;;
25207;SDS011;13153;52.316;21.166;2023-08-17T03:35:17;15.88;;;11.20;;
25207;SDS011;13153;52.316;21.166;2023-08-17T03:37:43;12.45;;;10.60;;
25207;SDS011;13153;52.316;21.166;2023-08-17T03:40:10;13.52;;;10.88;;
25207;SDS011;13153;52.316;21.166;2023-08-17T03:42:36;13.68;;;10.68;;
25207;SDS011;13153;52.316;21.166;2023-08-17T03:45:02;12.75;;;10.15;;
25207;SDS011;13153;52.316;21.166;2023-08-17T03:47:29;13.60;;;10.60;;
25207;SDS011;13153;52.316;21.166;2023-08-17T03:49:54;13.07;;;10.30;;
25207;SDS011;13153;52.316;21.166;2023-08-17T03:52:20;14.57;;;10.35;;
25207;SDS011;13153;52.316;21.166;2023-08-17T03:54:46;12.68;;;9.52;;
25207;SDS011;13153;52.316;21.166;2023-08-17T03:57:12;16.00;;;10.10;;
25207;SDS011;13153;52.316;21.166;2023-08-17T03:59:37;12.70;;;10.57;;
25207;SDS011;13153;52.316;21.166;2023-08-17T04:02:03;18.58;;;10.88;;
25207;SDS011;13153;52.316;21.166;2023-08-17T04:04:29;16.15;;;10.73;;
25207;SDS011;13153;52.316;21.166;2023-08-17T04:06:55;15.40;;;9.77;;
25207;SDS011;13153;52.316;21.166;2023-08-17T04:09:20;18.80;;;11.13;;
25207;SDS011;13153;52.316;21.166;2023-08-17T04:11:46;12.52;;;10.35;;
25207;SDS011;13153;52.316;21.166;2023-08-17T04:14:12;13.82;;;10.13;;
25207;SDS011;13153;52.316;21.166;2023-08-17T04:16:39;17.55;;;11.02;;
25207;SDS011;13153;52.316;21.166;2023-08-17T04:19:05;15.27;;;11.10;;
25207;SDS011;13153;52.316;21.166;2023-08-17T04:21:31;13.20;;;10.52;;
25207;SDS011;13153;52.316;21.166;2023-08-17T04:23:56;13.77;;;10.60;;
25207;SDS011;13153;52.316;21.166;2023-08-17T04:26:22;16.20;;;10.88;;
25207;SDS011;13153;52.316;21.166;2023-08-17T04:28:49;15.00;;;11.10;;
25207;SDS011;13153;52.316;21.166;2023-08-17T04:31:15;14.57;;;9.90;;
25207;SDS011;13153;52.316;21.166;2023-08-17T04:33:42;13.75;;;9.98;;
25207;SDS011;13153;52.316;21.166;2023-08-17T04:36:08;12.98;;;10.68;;
25207;SDS011;13153;52.316;21.166;2023-08-17T04:38:33;13.75;;;9.90;;
25207;SDS011;13153;52.316;21.166;2023-08-17T04:40:59;14.68;;;10.48;;
25207;SDS011;13153;52.316;21.166;2023-08-17T04:43:25;14.60;;;10.10;;
25207;SDS011;13153;52.316;21.166;2023-08-17T04:45:51;14.75;;;10.82;;
25207;SDS011;13153;52.316;21.166;2023-08-17T04:48:17;12.98;;;9.65;;
25207;SDS011;13153;52.316;21.166;2023-08-17T04:50:42;13.93;;;10.00;;
25207;SDS011;13153;52.316;21.166;2023-08-17T04:53:08;13.75;;;9.55;;
25207;SDS011;13153;52.316;21.166;2023-08-17T04:55:34;10.90;;;9.18;;
25207;SDS011;13153;52.316;21.166;2023-08-17T04:57:59;13.73;;;9.00;;
25207;SDS011;13153;52.316;21.166;2023-08-17T05:00:25;13.77;;;9.48;;
25207;SDS011;13153;52.316;21.166;2023-08-17T05:02:56;12.90;;;8.90;;
25207;SDS011;13153;52.316;21.166;2023-08-17T05:05:22;15.85;;;9.23;;
25207;SDS011;13153;52.316;21.166;2023-08-17T05:07:48;16.55;;;9.75;;
25207;SDS011;13153;52.316;21.166;2023-08-17T05:10:14;15.85;;;9.02;;
25207;SDS011;13153;52.316;21.166;2023-08-17T05:12:40;20.98;;;9.68;;
25207;SDS011;13153;52.316;21.166;2023-08-17T05:15:06;14.00;;;9.25;;
25207;SDS011;13153;52.316;21.166;2023-08-17T05:17:32;13.77;;;9.20;;
25207;SDS011;13153;52.316;21.166;2023-08-17T05:19:59;16.60;;;9.60;;
25207;SDS011;13153;52.316;21.166;2023-08-17T05:22:24;11.75;;;8.75;;
25207;SDS011;13153;52.316;21.166;2023-08-17T05:24:52;15.80;;;9.23;;
25207;SDS011;13153;52.316;21.166;2023-08-17T05:27:18;12.27;;;8.38;;
25207;SDS011;13153;52.316;21.166;2023-08-17T05:29:44;15.48;;;9.77;;
25207;SDS011;13153;52.316;21.166;2023-08-17T05:32:09;13.25;;;8.82;;
25207;SDS011;13153;52.316;21.166;2023-08-17T05:34:36;10.38;;;8.68;;
25207;SDS011;13153;52.316;21.166;2023-08-17T05:37:01;12.55;;;9.43;;
25207;SDS011;13153;52.316;21.166;2023-08-17T05:39:28;10.73;;;9.52;;
25207;SDS011;13153;52.316;21.166;2023-08-17T05:41:53;10.20;;;8.70;;
25207;SDS011;13153;52.316;21.166;2023-08-17T05:44:19;15.10;;;9.27;;
25207;SDS011;13153;52.316;21.166;2023-08-17T05:46:45;9.95;;;8.60;;
25207;SDS011;13153;52.316;21.166;2023-08-17T05:49:11;11.68;;;8.95;;
25207;SDS011;13153;52.316;21.166;2023-08-17T05:51:36;14.23;;;8.63;;
25207;SDS011;13153;52.316;21.166;2023-08-17T05:54:02;11.70;;;8.60;;
25207;SDS011;13153;52.316;21.166;2023-08-17T05:56:29;11.95;;;8.55;;
25207;SDS011;13153;52.316;21.166;2023-08-17T05:58:55;12.82;;;8.52;;
25207;SDS011;13153;52.316;21.166;2023-08-17T06:01:20;16.23;;;8.65;;
25207;SDS011;13153;52.316;21.166;2023-08-17T06:03:47;15.20;;;8.82;;
25207;SDS011;13153;52.316;21.166;2023-08-17T06:06:12;11.02;;;8.18;;
25207;SDS011;13153;52.316;21.166;2023-08-17T06:08:38;14.32;;;9.15;;
25207;SDS011;13153;52.316;21.166;2023-08-17T06:11:04;12.18;;;7.63;;
25207;SDS011;13153;52.316;21.166;2023-08-17T06:13:30;10.02;;;7.75;;
25207;SDS011;13153;52.316;21.166;2023-08-17T06:15:56;14.35;;;8.77;;
25207;SDS011;13153;52.316;21.166;2023-08-17T06:18:22;14.93;;;7.68;;
25207;SDS011;13153;52.316;21.166;2023-08-17T06:20:48;11.55;;;7.80;;
25207;SDS011;13153;52.316;21.166;2023-08-17T06:23:17;11.85;;;7.03;;
25207;SDS011;13153;52.316;21.166;2023-08-17T06:25:42;8.75;;;7.00;;
25207;SDS011;13153;52.316;21.166;2023-08-17T06:28:08;12.05;;;7.00;;
25207;SDS011;13153;52.316;21.166;2023-08-17T06:30:34;13.52;;;7.40;;
25207;SDS011;13153;52.316;21.166;2023-08-17T06:33:00;10.82;;;7.00;;
25207;SDS011;13153;52.316;21.166;2023-08-17T06:35:26;11.50;;;6.93;;
25207;SDS011;13153;52.316;21.166;2023-08-17T06:37:52;9.05;;;6.80;;
25207;SDS011;13153;52.316;21.166;2023-08-17T06:40:21;8.68;;;7.00;;
25207;SDS011;13153;52.316;21.166;2023-08-17T06:42:47;10.30;;;7.35;;
25207;SDS011;13153;52.316;21.166;2023-08-17T06:45:13;7.38;;;6.43;;
25207;SDS011;13153;52.316;21.166;2023-08-17T06:47:43;12.18;;;6.38;;
25207;SDS011;13153;52.316;21.166;2023-08-17T06:50:10;8.68;;;6.03;;
25207;SDS011;13153;52.316;21.166;2023-08-17T06:52:36;11.63;;;6.75;;
25207;SDS011;13153;52.316;21.166;2023-08-17T06:55:02;7.10;;;6.07;;
25207;SDS011;13153;52.316;21.166;2023-08-17T06:57:28;8.73;;;5.93;;
25207;SDS011;13153;52.316;21.166;2023-08-17T06:59:54;9.57;;;5.65;;
25207;SDS011;13153;52.316;21.166;2023-08-17T07:02:20;8.45;;;5.93;;
25207;SDS011;13153;52.316;21.166;2023-08-17T07:04:46;8.30;;;5.82;;
25207;SDS011;13153;52.316;21.166;2023-08-17T07:07:12;7.07;;;5.65;;
25207;SDS011;13153;52.316;21.166;2023-08-17T07:09:39;7.78;;;5.90;;
25207;SDS011;13153;52.316;21.166;2023-08-17T07:12:06;8.15;;;5.82;;
25207;SDS011;13153;52.316;21.166;2023-08-17T07:14:32;8.35;;;5.70;;
25207;SDS011;13153;52.316;21.166;2023-08-17T07:16:58;12.88;;;6.13;;
25207;SDS011;13153;52.316;21.166;2023-08-17T07:19:24;9.63;;;6.10;;
25207;SDS011;13153;52.316;21.166;2023-08-17T07:21:50;7.60;;;5.32;;
25207;SDS011;13153;52.316;21.166;2023-08-17T07:24:16;9.18;;;5.60;;
25207;SDS011;13153;52.316;21.166;2023-08-17T07:26:42;6.95;;;5.30;;
25207;SDS011;13153;52.316;21.166;2023-08-17T07:29:08;9.23;;;5.50;;
25207;SDS011;13153;52.316;21.166;2023-08-17T07:31:34;7.53;;;5.40;;
25207;SDS011;13153;52.316;21.166;2023-08-17T07:34:02;7.63;;;5.22;;
25207;SDS011;13153;52.316;21.166;2023-08-17T07:36:30;10.13;;;4.90;;
25207;SDS011;13153;52.316;21.166;2023-08-17T07:38:57;9.70;;;5.20;;
25207;SDS011;13153;52.316;21.166;2023-08-17T07:41:24;8.18;;;4.63;;
25207;SDS011;13153;52.316;21.166;2023-08-17T07:43:52;7.32;;;4.50;;
25207;SDS011;13153;52.316;21.166;2023-08-17T07:46:18;6.63;;;4.57;;
25207;SDS011;13153;52.316;21.166;2023-08-17T07:48:44;7.03;;;4.88;;
25207;SDS011;13153;52.316;21.166;2023-08-17T07:51:09;7.25;;;5.40;;
25207;SDS011;13153;52.316;21.166;2023-08-17T07:53:35;8.27;;;5.30;;
25207;SDS011;13153;52.316;21.166;2023-08-17T07:56:01;7.28;;;5.00;;
25207;SDS011;13153;52.316;21.166;2023-08-17T07:58:27;7.80;;;4.90;;
25207;SDS011;13153;52.316;21.166;2023-08-17T08:00:53;8.98;;;5.15;;
25207;SDS011;13153;52.316;21.166;2023-08-17T08:03:19;8.48;;;5.45;;
25207;SDS011;13153;52.316;21.166;2023-08-17T08:05:44;7.18;;;4.82;;
25207;SDS011;13153;52.316;21.166;2023-08-17T08:08:10;9.38;;;4.90;;
25207;SDS011;13153;52.316;21.166;2023-08-17T08:10:36;8.85;;;5.18;;
25207;SDS011;13153;52.316;21.166;2023-08-17T08:13:02;8.02;;;5.10;;
25207;SDS011;13153;52.316;21.166;2023-08-17T08:15:29;10.20;;;5.10;;
25207;SDS011;13153;52.316;21.166;2023-08-17T08:17:55;7.20;;;5.10;;
25207;SDS011;13153;52.316;21.166;2023-08-17T08:20:21;13.20;;;5.13;;
25207;SDS011;13153;52.316;21.166;2023-08-17T08:22:46;8.88;;;5.38;;
25207;SDS011;13153;52.316;21.166;2023-08-17T08:25:12;7.43;;;4.68;;
25207;SDS011;13153;52.316;21.166;2023-08-17T08:27:38;8.25;;;5.28;;
25207;SDS011;13153;52.316;21.166;2023-08-17T08:30:05;11.15;;;5.55;;
25207;SDS011;13153;52.316;21.166;2023-08-17T08:32:32;6.65;;;5.10;;
25207;SDS011;13153;52.316;21.166;2023-08-17T08:34:58;11.82;;;5.47;;
25207;SDS011;13153;52.316;21.166;2023-08-17T08:37:24;7.13;;;5.10;;
25207;SDS011;13153;52.316;21.166;2023-08-17T08:39:53;6.07;;;5.20;;
25207;SDS011;13153;52.316;21.166;2023-08-17T08:42:21;8.98;;;5.63;;
25207;SDS011;13153;52.316;21.166;2023-08-17T08:44:49;7.75;;;5.22;;
25207;SDS011;13153;52.316;21.166;2023-08-17T08:47:16;6.78;;;4.85;;
25207;SDS011;13153;52.316;21.166;2023-08-17T08:49:50;6.40;;;4.80;;
25207;SDS011;13153;52.316;21.166;2023-08-17T08:52:35;7.10;;;4.90;;
25207;SDS011;13153;52.316;21.166;2023-08-17T08:55:11;6.55;;;5.25;;
25207;SDS011;13153;52.316;21.166;2023-08-17T08:57:42;10.32;;;5.43;;
25207;SDS011;13153;52.316;21.166;2023-08-17T09:00:14;12.60;;;5.30;;
25207;SDS011;13153;52.316;21.166;2023-08-17T09:02:42;10.02;;;5.60;;
25207;SDS011;13153;52.316;21.166;2023-08-17T09:05:09;8.98;;;5.45;;
25207;SDS011;13153;52.316;21.166;2023-08-17T09:07:36;9.07;;;5.25;;
25207;SDS011;13153;52.316;21.166;2023-08-17T09:10:05;9.10;;;4.90;;
25207;SDS011;13153;52.316;21.166;2023-08-17T09:12:33;14.23;;;5.65;;
25207;SDS011;13153;52.316;21.166;2023-08-17T09:14:58;7.88;;;5.43;;
25207;SDS011;13153;52.316;21.166;2023-08-17T09:17:25;5.93;;;5.20;;
25207;SDS011;13153;52.316;21.166;2023-08-17T09:19:52;7.80;;;5.60;;
25207;SDS011;13153;52.316;21.166;2023-08-17T09:22:41;13.07;;;5.50;;
25207;SDS011;13153;52.316;21.166;2023-08-17T09:25:07;8.98;;;5.20;;
25207;SDS011;13153;52.316;21.166;2023-08-17T09:27:47;7.05;;;5.53;;
25207;SDS011;13153;52.316;21.166;2023-08-17T09:30:13;8.23;;;5.68;;
25207;SDS011;13153;52.316;21.166;2023-08-17T09:32:39;7.07;;;5.50;;
25207;SDS011;13153;52.316;21.166;2023-08-17T09:35:06;8.70;;;5.40;;
25207;SDS011;13153;52.316;21.166;2023-08-17T09:37:33;6.85;;;5.25;;
25207;SDS011;13153;52.316;21.166;2023-08-17T09:39:59;7.28;;;5.30;;
25207;SDS011;13153;52.316;21.166;2023-08-17T09:42:26;9.63;;;5.68;;
25207;SDS011;13153;52.316;21.166;2023-08-17T09:44:52;8.80;;;5.93;;
25207;SDS011;13153;52.316;21.166;2023-08-17T09:47:20;6.22;;;5.63;;
25207;SDS011;13153;52.316;21.166;2023-08-17T09:49:49;6.72;;;5.30;;
25207;SDS011;13153;52.316;21.166;2023-08-17T09:52:22;6.45;;;5.50;;
25207;SDS011;13153;52.316;21.166;2023-08-17T09:54:51;8.25;;;5.15;;
25207;SDS011;13153;52.316;21.166;2023-08-17T09:57:19;7.70;;;5.13;;
25207;SDS011;13153;52.316;21.166;2023-08-17T09:59:45;5.90;;;4.90;;
25207;SDS011;13153;52.316;21.166;2023-08-17T10:02:18;9.88;;;5.60;;
25207;SDS011;13153;52.316;21.166;2023-08-17T10:04:52;8.73;;;5.10;;
25207;SDS011;13153;52.316;21.166;2023-08-17T10:07:24;6.78;;;5.13;;
25207;SDS011;13153;52.316;21.166;2023-08-17T10:10:05;6.25;;;4.72;;
25207;SDS011;13153;52.316;21.166;2023-08-17T10:12:33;7.25;;;5.00;;
25207;SDS011;13153;52.316;21.166;2023-08-17T10:15:08;9.35;;;4.80;;
25207;SDS011;13153;52.316;21.166;2023-08-17T10:17:46;9.23;;;4.90;;
25207;SDS011;13153;52.316;21.166;2023-08-17T10:20:38;8.40;;;5.28;;
25207;SDS011;13153;52.316;21.166;2023-08-17T10:23:12;6.43;;;4.93;;
25207;SDS011;13153;52.316;21.166;2023-08-17T10:25:44;5.30;;;4.80;;
25207;SDS011;13153;52.316;21.166;2023-08-17T10:28:12;8.13;;;5.22;;
25207;SDS011;13153;52.316;21.166;2023-08-17T10:30:40;7.75;;;4.68;;
25207;SDS011;13153;52.316;21.166;2023-08-17T10:33:07;6.43;;;4.15;;
25207;SDS011;13153;52.316;21.166;2023-08-17T10:35:35;6.00;;;4.10;;
25207;SDS011;13153;52.316;21.166;2023-08-17T10:38:03;7.40;;;5.00;;
25207;SDS011;13153;52.316;21.166;2023-08-17T10:40:38;6.57;;;4.40;;
25207;SDS011;13153;52.316;21.166;2023-08-17T10:43:07;6.45;;;4.35;;
25207;SDS011;13153;52.316;21.166;2023-08-17T10:45:36;6.78;;;4.40;;
25207;SDS011;13153;52.316;21.166;2023-08-17T10:50:32;9.73;;;4.90;;
25207;SDS011;13153;52.316;21.166;2023-08-17T10:53:12;5.35;;;3.97;;
25207;SDS011;13153;52.316;21.166;2023-08-17T10:55:45;6.90;;;4.10;;
25207;SDS011;13153;52.316;21.166;2023-08-17T10:58:17;8.18;;;4.30;;
25207;SDS011;13153;52.316;21.166;2023-08-17T11:00:43;5.50;;;3.70;;
25207;SDS011;13153;52.316;21.166;2023-08-17T11:03:10;5.18;;;3.88;;
25207;SDS011;13153;52.316;21.166;2023-08-17T11:08:20;5.65;;;3.30;;
25207;SDS011;13153;52.316;21.166;2023-08-17T11:13:37;5.85;;;2.97;;
25207;SDS011;13153;52.316;21.166;2023-08-17T11:16:05;3.45;;;2.70;;
25207;SDS011;13153;52.316;21.166;2023-08-17T11:18:33;3.50;;;2.58;;
25207;SDS011;13153;52.316;21.166;2023-08-17T11:21:00;5.35;;;3.13;;
25207;SDS011;13153;52.316;21.166;2023-08-17T11:23:32;6.10;;;3.05;;
25207;SDS011;13153;52.316;21.166;2023-08-17T11:26:01;5.43;;;2.67;;
25207;SDS011;13153;52.316;21.166;2023-08-17T11:28:29;4.43;;;2.90;;
25207;SDS011;13153;52.316;21.166;2023-08-17T11:31:04;3.78;;;2.55;;
25207;SDS011;13153;52.316;21.166;2023-08-17T11:33:33;5.53;;;2.90;;
25207;SDS011;13153;52.316;21.166;2023-08-17T11:36:01;3.45;;;2.55;;
25207;SDS011;13153;52.316;21.166;2023-08-17T11:38:33;3.03;;;2.53;;
25207;SDS011;13153;52.316;21.166;2023-08-17T11:41:01;4.18;;;2.53;;
25207;SDS011;13153;52.316;21.166;2023-08-17T11:43:28;4.22;;;3.00;;
25207;SDS011;13153;52.316;21.166;2023-08-17T11:45:55;5.28;;;2.55;;
25207;SDS011;13153;52.316;21.166;2023-08-17T11:48:21;5.13;;;2.70;;
25207;SDS011;13153;52.316;21.166;2023-08-17T11:50:49;6.88;;;2.50;;
25207;SDS011;13153;52.316;21.166;2023-08-17T11:53:16;3.03;;;2.50;;
25207;SDS011;13153;52.316;21.166;2023-08-17T11:55:41;4.30;;;2.88;;
25207;SDS011;13153;52.316;21.166;2023-08-17T11:58:08;5.78;;;2.67;;
25207;SDS011;13153;52.316;21.166;2023-08-17T12:00:34;5.07;;;2.67;;
25207;SDS011;13153;52.316;21.166;2023-08-17T12:03:04;4.53;;;2.50;;
25207;SDS011;13153;52.316;21.166;2023-08-17T12:05:30;4.78;;;2.60;;
25207;SDS011;13153;52.316;21.166;2023-08-17T12:08:01;4.68;;;2.60;;
25207;SDS011;13153;52.316;21.166;2023-08-17T12:10:36;6.65;;;2.63;;
25207;SDS011;13153;52.316;21.166;2023-08-17T12:13:03;3.72;;;2.67;;
25207;SDS011;13153;52.316;21.166;2023-08-17T12:15:33;9.63;;;3.00;;
25207;SDS011;13153;52.316;21.166;2023-08-17T12:18:01;6.40;;;2.72;;
25207;SDS011;13153;52.316;21.166;2023-08-17T12:20:29;5.20;;;2.85;;
25207;SDS011;13153;52.316;21.166;2023-08-17T12:22:59;8.00;;;2.50;;
25207;SDS011;13153;52.316;21.166;2023-08-17T12:25:26;12.68;;;3.00;;
25207;SDS011;13153;52.316;21.166;2023-08-17T12:27:52;3.78;;;3.20;;
25207;SDS011;13153;52.316;21.166;2023-08-17T12:30:25;5.63;;;2.97;;
25207;SDS011;13153;52.316;21.166;2023-08-17T12:32:57;3.50;;;2.60;;
25207;SDS011;13153;52.316;21.166;2023-08-17T12:35:24;7.43;;;2.70;;
25207;SDS011;13153;52.316;21.166;2023-08-17T12:37:51;8.18;;;3.17;;
25207;SDS011;13153;52.316;21.166;2023-08-17T12:40:18;5.65;;;2.72;;
25207;SDS011;13153;52.316;21.166;2023-08-17T12:42:45;7.13;;;2.70;;
25207;SDS011;13153;52.316;21.166;2023-08-17T12:45:12;8.63;;;3.22;;
25207;SDS011;13153;52.316;21.166;2023-08-17T12:47:38;10.05;;;3.30;;
25207;SDS011;13153;52.316;21.166;2023-08-17T12:50:04;5.65;;;3.20;;
25207;SDS011;13153;52.316;21.166;2023-08-17T12:52:31;6.47;;;3.42;;
25207;SDS011;13153;52.316;21.166;2023-08-17T12:54:57;8.05;;;3.22;;
25207;SDS011;13153;52.316;21.166;2023-08-17T12:57:23;5.95;;;2.83;;
25207;SDS011;13153;52.316;21.166;2023-08-17T12:59:48;5.00;;;3.42;;
25207;SDS011;13153;52.316;21.166;2023-08-17T13:02:14;7.35;;;3.85;;
25207;SDS011;13153;52.316;21.166;2023-08-17T13:04:41;3.80;;;3.40;;
25207;SDS011;13153;52.316;21.166;2023-08-17T13:07:07;6.70;;;3.67;;
25207;SDS011;13153;52.316;21.166;2023-08-17T13:09:33;4.10;;;3.67;;
25207;SDS011;13153;52.316;21.166;2023-08-17T13:11:58;6.78;;;3.70;;
25207;SDS011;13153;52.316;21.166;2023-08-17T13:14:25;7.72;;;3.80;;
25207;SDS011;13153;52.316;21.166;2023-08-17T13:16:50;4.20;;;3.35;;
25207;SDS011;13153;52.316;21.166;2023-08-17T13:19:17;5.18;;;3.40;;
25207;SDS011;13153;52.316;21.166;2023-08-17T13:21:43;10.23;;;4.20;;
25207;SDS011;13153;52.316;21.166;2023-08-17T13:24:09;6.07;;;3.33;;
25207;SDS011;13153;52.316;21.166;2023-08-17T13:26:38;5.72;;;3.47;;
25207;SDS011;13153;52.316;21.166;2023-08-17T13:29:04;4.20;;;3.40;;
25207;SDS011;13153;52.316;21.166;2023-08-17T13:31:30;7.18;;;3.00;;
25207;SDS011;13153;52.316;21.166;2023-08-17T13:33:56;5.95;;;3.40;;
25207;SDS011;13153;52.316;21.166;2023-08-17T13:36:22;4.35;;;3.40;;
25207;SDS011;13153;52.316;21.166;2023-08-17T13:38:47;4.68;;;3.25;;
25207;SDS011;13153;52.316;21.166;2023-08-17T13:41:13;5.95;;;3.13;;
25207;SDS011;13153;52.316;21.166;2023-08-17T13:43:39;8.20;;;3.53;;
25207;SDS011;13153;52.316;21.166;2023-08-17T13:46:05;7.18;;;3.22;;
25207;SDS011;13153;52.316;21.166;2023-08-17T13:48:31;5.53;;;3.25;;
25207;SDS011;13153;52.316;21.166;2023-08-17T13:50:57;6.03;;;3.20;;
25207;SDS011;13153;52.316;21.166;2023-08-17T13:53:22;9.88;;;3.13;;
25207;SDS011;13153;52.316;21.166;2023-08-17T13:55:48;5.40;;;3.35;;
25207;SDS011;13153;52.316;21.166;2023-08-17T13:58:14;5.40;;;3.00;;
25207;SDS011;13153;52.316;21.166;2023-08-17T14:00:40;4.53;;;3.53;;
25207;SDS011;13153;52.316;21.166;2023-08-17T14:03:07;5.05;;;3.13;;
25207;SDS011;13153;52.316;21.166;2023-08-17T14:05:33;8.65;;;2.85;;
25207;SDS011;13153;52.316;21.166;2023-08-17T14:07:59;4.63;;;3.17;;
25207;SDS011;13153;52.316;21.166;2023-08-17T14:10:25;5.70;;;2.80;;
25207;SDS011;13153;52.316;21.166;2023-08-17T14:12:51;4.28;;;2.85;;
25207;SDS011;13153;52.316;21.166;2023-08-17T14:15:16;8.90;;;3.30;;
25207;SDS011;13153;52.316;21.166;2023-08-17T14:17:42;5.97;;;2.80;;
25207;SDS011;13153;52.316;21.166;2023-08-17T14:20:08;3.40;;;2.78;;
25207;SDS011;13153;52.316;21.166;2023-08-17T14:22:35;6.68;;;3.10;;
25207;SDS011;13153;52.316;21.166;2023-08-17T14:25:01;4.80;;;3.08;;
25207;SDS011;13153;52.316;21.166;2023-08-17T14:27:28;6.15;;;3.30;;
25207;SDS011;13153;52.316;21.166;2023-08-17T14:29:54;7.45;;;3.10;;
25207;SDS011;13153;52.316;21.166;2023-08-17T14:32:20;5.60;;;2.88;;
25207;SDS011;13153;52.316;21.166;2023-08-17T14:34:46;6.40;;;3.13;;
25207;SDS011;13153;52.316;21.166;2023-08-17T14:37:12;5.32;;;3.00;;
25207;SDS011;13153;52.316;21.166;2023-08-17T14:39:38;7.63;;;3.03;;